Time;durP1;ratioP1;P1;durP2;ratioP2;P2;SDS_P1;SDS_P2;PMS_P1;PMS_P2;Temp;Humidity;BMP_temperature;BMP_pressure;BME280_temperature;BME280_humidity;BME280_pressure;Samples;Min_cycle;Max_cycle;Signal;HPM_P1;HPM_P2
2022/05/05 00:02:09;;;;;;;9.57;8.67;;;13.20;99.90;;;;;;5042989;28;20228;-62
2022/05/05 00:04:34;;;;;;;10.03;8.93;;;12.80;99.90;;;;;;5045841;28;20618;-62
2022/05/05 00:07:03;;;;;;;10.27;9.00;;;12.80;99.90;;;;;;5048272;28;20963;-62
2022/05/05 00:09:29;;;;;;;9.00;8.27;;;13.00;99.90;;;;;;5049725;28;20247;-62
2022/05/05 00:14:40;;;;;;;8.90;8.07;;;12.50;99.90;;;;;;5050115;28;20265;-62
2022/05/05 00:17:08;;;;;;;10.27;9.38;;;12.60;99.90;;;;;;5049006;28;20187;-62
2022/05/05 00:19:35;;;;;;;10.02;9.13;;;12.60;99.90;;;;;;5048811;28;20182;-62
2022/05/05 00:22:02;;;;;;;9.45;8.55;;;12.50;99.90;;;;;;5042535;28;20265;-62
2022/05/05 00:24:28;;;;;;;9.00;8.10;;;12.70;99.90;;;;;;5047129;28;20209;-62
2022/05/05 00:26:54;;;;;;;8.83;8.00;;;12.80;99.90;;;;;;5049558;28;20196;-62
2022/05/05 00:29:20;;;;;;;10.10;9.10;;;12.60;99.90;;;;;;5049301;28;20193;-62
2022/05/05 00:31:47;;;;;;;10.55;9.55;;;12.60;99.90;;;;;;5049789;28;20514;-62
2022/05/05 00:34:13;;;;;;;9.65;8.75;;;12.60;99.90;;;;;;5046487;28;20213;-62
2022/05/05 00:36:39;;;;;;;8.40;7.65;;;12.50;99.90;;;;;;5049658;28;20199;-62
2022/05/05 00:39:06;;;;;;;9.00;8.18;;;12.80;99.90;;;;;;5048368;28;20534;-62
2022/05/05 00:41:36;;;;;;;8.95;8.10;;;12.70;99.90;;;;;;5047439;28;20662;-62
2022/05/05 00:44:04;;;;;;;9.63;8.63;;;12.90;99.90;;;;;;5046510;28;20211;-62
2022/05/05 00:46:30;;;;;;;9.95;8.27;;;12.70;99.90;;;;;;5048985;28;20290;-62
2022/05/05 00:48:56;;;;;;;11.27;8.95;;;12.70;99.90;;;;;;5048715;28;20184;-62
2022/05/05 00:51:22;;;;;;;9.10;8.30;;;12.70;99.90;;;;;;5049450;28;20184;-62
2022/05/05 00:53:47;;;;;;;10.13;9.07;;;12.60;99.90;;;;;;5048633;28;20808;-62
2022/05/05 00:56:15;;;;;;;9.40;8.60;;;12.80;99.90;;;;;;5048705;28;20188;-62
2022/05/05 00:58:46;;;;;;;9.10;8.10;;;12.70;99.90;;;;;;5048757;28;20187;-62
2022/05/05 01:01:21;;;;;;;9.10;8.30;;;12.70;99.90;;;;;;5047925;28;20230;-62
2022/05/05 01:03:48;;;;;;;9.00;8.20;;;12.60;99.90;;;;;;5048087;28;20181;-62
2022/05/05 01:06:14;;;;;;;8.30;7.60;;;12.50;99.90;;;;;;5049388;28;20226;-62
2022/05/05 01:08:41;;;;;;;11.55;9.95;;;12.60;99.90;;;;;;5049198;28;20199;-62
2022/05/05 01:11:07;;;;;;;9.45;8.65;;;12.70;99.90;;;;;;5043434;28;20200;-62
2022/05/05 01:13:36;;;;;;;9.27;8.47;;;12.50;99.90;;;;;;5049282;28;20185;-62
2022/05/05 01:16:04;;;;;;;9.05;8.25;;;12.00;99.90;;;;;;5051371;28;20196;-62
2022/05/05 01:18:30;;;;;;;9.80;8.90;;;12.40;99.90;;;;;;5052234;28;20925;-62
2022/05/05 01:20:55;;;;;;;9.50;8.70;;;12.30;99.90;;;;;;5051727;28;20231;-62
2022/05/05 01:23:22;;;;;;;9.50;8.60;;;12.50;99.90;;;;;;5052238;28;20443;-62
2022/05/05 01:28:39;;;;;;;12.00;8.90;;;12.50;99.90;;;;;;5045332;28;20206;-62
2022/05/05 01:31:05;;;;;;;10.38;9.48;;;12.30;99.90;;;;;;5052352;28;20194;-62
2022/05/05 01:33:30;;;;;;;9.40;8.60;;;12.30;99.90;;;;;;5050763;28;20189;-62
2022/05/05 01:35:57;;;;;;;9.70;8.90;;;12.40;99.90;;;;;;5057206;28;20264;-62
2022/05/05 01:38:25;;;;;;;9.18;8.48;;;12.40;99.90;;;;;;5051765;28;20833;-62
2022/05/05 01:40:52;;;;;;;8.70;8.00;;;12.30;99.90;;;;;;5050807;28;20203;-62
2022/05/05 01:43:19;;;;;;;9.97;8.97;;;12.30;99.90;;;;;;5052169;28;20196;-62
2022/05/05 01:45:46;;;;;;;9.55;8.65;;;12.40;99.90;;;;;;5051763;28;20207;-62
2022/05/05 01:48:12;;;;;;;9.00;8.20;;;12.60;99.90;;;;;;5051627;28;20708;-62
2022/05/05 01:50:39;;;;;;;8.50;7.70;;;12.50;99.90;;;;;;5051500;28;20242;-62
2022/05/05 01:53:04;;;;;;;9.40;8.60;;;12.60;99.90;;;;;;5052780;28;20552;-62
2022/05/05 01:55:31;;;;;;;10.57;9.57;;;12.50;99.90;;;;;;5051885;28;20223;-62
2022/05/05 01:57:58;;;;;;;9.70;8.80;;;12.20;99.90;;;;;;5044184;28;20436;-62
2022/05/05 02:00:24;;;;;;;10.45;8.55;;;12.30;99.90;;;;;;5050864;28;20199;-62
2022/05/05 02:02:50;;;;;;;9.43;8.73;;;12.40;99.90;;;;;;5050761;28;20217;-62
2022/05/05 02:05:19;;;;;;;8.55;7.85;;;12.40;99.90;;;;;;5052076;28;20215;-62
2022/05/05 02:07:45;;;;;;;9.38;8.57;;;12.40;99.90;;;;;;5052427;28;20267;-62
2022/05/05 02:10:14;;;;;;;9.35;7.25;;;12.60;99.90;;;;;;5056679;28;20190;-62
2022/05/05 02:12:41;;;;;;;9.27;8.48;;;12.50;99.90;;;;;;5050933;28;20184;-62
2022/05/05 02:15:08;;;;;;;9.13;8.23;;;12.70;99.90;;;;;;5051736;28;20224;-62
2022/05/05 02:17:39;;;;;;;9.40;8.50;;;12.40;99.90;;;;;;5047485;28;20667;-62
2022/05/05 02:20:06;;;;;;;9.48;8.68;;;12.70;99.90;;;;;;5050799;28;20195;-62
2022/05/05 02:22:32;;;;;;;9.02;8.23;;;12.50;99.90;;;;;;5050220;28;20992;-62
2022/05/05 02:24:59;;;;;;;9.00;8.30;;;12.40;99.90;;;;;;5051504;28;20593;-62
2022/05/05 02:27:24;;;;;;;9.30;8.50;;;12.40;99.90;;;;;;5055716;28;20183;-62
2022/05/05 02:29:51;;;;;;;8.17;7.47;;;12.30;99.90;;;;;;5067030;28;20689;-62
2022/05/05 02:32:17;;;;;;;9.10;7.85;;;12.30;99.90;;;;;;5048409;28;20184;-62
2022/05/05 02:34:45;;;;;;;8.13;7.40;;;12.60;99.90;;;;;;5051485;28;20216;-62
2022/05/05 02:39:55;;;;;;;9.00;8.20;;;12.40;99.90;;;;;;5050711;28;20237;-62
2022/05/05 02:42:21;;;;;;;9.90;8.90;;;12.30;99.90;;;;;;5048481;28;20188;-62
2022/05/05 02:44:47;;;;;;;8.63;7.83;;;12.50;99.90;;;;;;5051991;28;20646;-62
2022/05/05 02:47:13;;;;;;;9.23;8.43;;;12.30;99.90;;;;;;5050183;28;20572;-62
2022/05/05 02:49:39;;;;;;;9.47;8.67;;;12.20;99.90;;;;;;5051616;28;20419;-63
2022/05/05 02:52:09;;;;;;;9.30;8.40;;;12.00;99.90;;;;;;5050835;28;20452;-62
2022/05/05 02:54:47;;;;;;;9.35;8.55;;;12.40;99.90;;;;;;5050894;28;20287;-62
2022/05/05 02:57:17;;;;;;;8.70;7.95;;;12.30;99.90;;;;;;5043543;28;20183;-62
2022/05/05 02:59:43;;;;;;;9.25;8.40;;;12.00;99.90;;;;;;5051828;28;20189;-62
2022/05/05 03:02:09;;;;;;;9.60;8.77;;;12.10;99.90;;;;;;5049664;28;20234;-62
2022/05/05 03:04:35;;;;;;;9.50;8.70;;;12.40;99.90;;;;;;5051198;28;20541;-62
2022/05/05 03:07:01;;;;;;;9.93;9.03;;;12.00;99.90;;;;;;5050863;28;20199;-62
2022/05/05 03:09:27;;;;;;;9.52;8.65;;;12.00;99.90;;;;;;5050565;28;20195;-62
2022/05/05 03:11:53;;;;;;;9.40;8.50;;;12.10;99.90;;;;;;5049962;28;20188;-62
2022/05/05 03:14:18;;;;;;;9.70;8.73;;;11.90;99.90;;;;;;5050292;28;20239;-62
2022/05/05 03:16:44;;;;;;;10.27;9.40;;;12.00;99.90;;;;;;5050800;28;20199;-62
2022/05/05 03:19:10;;;;;;;10.60;9.60;;;11.90;99.90;;;;;;5048566;28;20671;-62
2022/05/05 03:21:36;;;;;;;8.93;8.13;;;11.80;99.90;;;;;;5050143;28;20428;-62
2022/05/05 03:24:03;;;;;;;9.98;9.05;;;11.70;99.90;;;;;;5047012;28;20220;-62
2022/05/05 03:26:29;;;;;;;10.50;9.55;;;11.80;99.90;;;;;;5049872;28;20208;-62
2022/05/05 03:28:55;;;;;;;10.93;9.83;;;11.90;99.90;;;;;;5049811;28;20206;-62
2022/05/05 03:31:20;;;;;;;9.37;8.43;;;11.70;99.90;;;;;;5036819;28;20435;-62
2022/05/05 03:33:46;;;;;;;9.67;8.80;;;11.90;99.90;;;;;;5049112;28;20183;-62
2022/05/05 03:36:12;;;;;;;10.13;9.30;;;11.70;99.90;;;;;;5050598;28;20558;-62
2022/05/05 03:38:37;;;;;;;10.70;9.40;;;11.70;99.90;;;;;;5048888;28;20199;-62
2022/05/05 03:41:05;;;;;;;10.47;9.57;;;11.80;99.90;;;;;;5048833;28;20187;-62
2022/05/05 03:43:31;;;;;;;9.98;8.95;;;11.70;99.90;;;;;;5049909;28;20889;-61
2022/05/05 03:45:57;;;;;;;11.50;10.50;;;11.70;99.90;;;;;;5049543;28;20634;-61
2022/05/05 03:48:22;;;;;;;9.50;8.50;;;11.80;99.90;;;;;;5049516;28;20263;-61
2022/05/05 03:50:48;;;;;;;9.87;9.07;;;12.10;99.90;;;;;;5052328;28;20457;-61
2022/05/05 03:53:13;;;;;;;13.73;9.47;;;11.90;99.90;;;;;;5057022;28;20179;-61
2022/05/05 03:55:39;;;;;;;9.60;8.70;;;11.80;99.90;;;;;;5049533;28;20204;-61
2022/05/05 03:58:05;;;;;;;9.70;8.93;;;12.00;99.90;;;;;;5049031;28;20191;-61
2022/05/05 04:00:30;;;;;;;8.70;8.00;;;12.10;99.90;;;;;;5049471;28;20239;-61
2022/05/05 04:05:40;;;;;;;10.05;9.15;;;11.90;99.90;;;;;;5050545;28;20218;-60
2022/05/05 04:08:06;;;;;;;10.17;9.27;;;12.00;99.90;;;;;;5044936;28;20192;-62
2022/05/05 04:10:32;;;;;;;10.07;9.00;;;11.90;99.90;;;;;;5050300;28;20187;-63
2022/05/05 04:12:58;;;;;;;9.23;8.53;;;12.10;99.90;;;;;;5047580;28;20441;-63
2022/05/05 04:15:24;;;;;;;11.13;10.13;;;12.00;99.90;;;;;;5048793;28;20602;-62
2022/05/05 04:17:50;;;;;;;9.35;8.55;;;12.10;99.90;;;;;;5048520;28;20286;-63
2022/05/05 04:20:17;;;;;;;10.00;9.00;;;12.10;99.90;;;;;;5050667;28;20180;-63
2022/05/05 04:22:43;;;;;;;9.48;8.57;;;12.10;99.90;;;;;;5048149;28;20227;-62
2022/05/05 04:25:09;;;;;;;9.50;8.70;;;12.20;99.90;;;;;;5053808;28;20265;-63
2022/05/05 04:27:39;;;;;;;8.57;7.88;;;12.30;99.90;;;;;;5048410;28;20457;-63
2022/05/05 04:30:06;;;;;;;13.30;11.98;;;12.20;99.90;;;;;;5048624;28;20254;-63
2022/05/05 04:32:31;;;;;;;9.68;8.77;;;12.50;99.90;;;;;;5038073;28;20256;-65
2022/05/05 04:34:57;;;;;;;14.40;12.87;;;12.40;99.90;;;;;;5050113;28;20345;-62
2022/05/05 04:37:23;;;;;;;8.67;7.97;;;12.40;99.90;;;;;;5049976;28;20184;-63
2022/05/05 04:39:48;;;;;;;9.70;8.80;;;12.50;99.90;;;;;;5048351;28;20236;-62
2022/05/05 04:42:15;;;;;;;10.00;9.10;;;12.30;99.90;;;;;;5050592;28;20789;-62
2022/05/05 04:44:41;;;;;;;9.88;9.07;;;12.40;99.90;;;;;;5049379;28;20206;-64
2022/05/05 04:47:07;;;;;;;11.43;9.15;;;12.50;99.90;;;;;;5047562;28;20235;-63
2022/05/05 04:49:33;;;;;;;8.85;7.95;;;12.60;99.90;;;;;;5044329;28;20186;-63
2022/05/05 04:51:59;;;;;;;9.50;8.60;;;12.70;99.90;;;;;;5048949;28;20287;-63
2022/05/05 04:54:24;;;;;;;9.37;8.57;;;12.70;99.90;;;;;;5051037;28;20549;-63
2022/05/05 04:56:50;;;;;;;10.20;9.37;;;12.40;99.90;;;;;;5050910;28;20346;-63
2022/05/05 04:59:16;;;;;;;10.17;9.27;;;12.30;99.90;;;;;;5057893;28;20321;-63
2022/05/05 05:01:41;;;;;;;9.30;8.33;;;12.50;99.90;;;;;;5052190;28;20232;-63
2022/05/05 05:04:07;;;;;;;10.47;9.27;;;12.80;99.90;;;;;;5049810;28;20223;-63
2022/05/05 05:06:33;;;;;;;10.18;8.40;;;12.80;99.90;;;;;;5052845;28;20221;-64
2022/05/05 05:08:59;;;;;;;9.40;8.50;;;13.00;99.90;;;;;;5052081;28;20572;-63
2022/05/05 05:11:25;;;;;;;10.00;8.80;;;13.10;99.90;;;;;;5059784;28;20439;-63
2022/05/05 05:13:51;;;;;;;9.80;9.00;;;13.30;99.90;;;;;;5052042;28;20555;-63
2022/05/05 05:16:16;;;;;;;9.90;8.97;;;13.30;99.90;;;;;;5052506;28;20196;-63
2022/05/05 05:18:42;;;;;;;10.43;9.50;;;13.40;99.90;;;;;;5050809;28;20559;-63
2022/05/05 05:21:08;;;;;;;10.73;9.63;;;13.40;99.90;;;;;;5050905;28;20189;-63
2022/05/05 05:23:33;;;;;;;10.73;9.63;;;13.20;99.90;;;;;;5050470;28;20288;-63
2022/05/05 05:25:59;;;;;;;12.60;10.70;;;13.20;99.90;;;;;;5050228;28;20262;-63
2022/05/05 05:28:25;;;;;;;11.80;10.60;;;13.10;99.90;;;;;;5050818;28;20568;-63
2022/05/05 05:30:51;;;;;;;10.13;9.33;;;13.40;99.90;;;;;;5050786;28;20266;-63
2022/05/05 05:33:17;;;;;;;10.35;9.45;;;13.10;99.90;;;;;;5049635;28;20439;-63
2022/05/05 05:35:44;;;;;;;9.77;8.97;;;13.50;99.90;;;;;;5051917;28;20213;-65
2022/05/05 05:38:11;;;;;;;9.68;8.70;;;13.40;99.90;;;;;;5051672;28;20192;-66
2022/05/05 05:40:36;;;;;;;10.48;9.60;;;13.40;99.90;;;;;;5051663;28;20194;-66
2022/05/05 05:43:03;;;;;;;9.60;8.70;;;13.50;99.90;;;;;;5050074;28;20200;-66
2022/05/05 05:45:28;;;;;;;9.93;9.13;;;13.60;99.90;;;;;;5045238;28;20467;-66
2022/05/05 05:47:54;;;;;;;10.97;9.97;;;13.40;99.90;;;;;;5043613;28;20708;-64
2022/05/05 05:50:20;;;;;;;12.60;11.40;;;13.40;99.90;;;;;;5057615;28;20694;-60
2022/05/05 05:52:46;;;;;;;10.30;9.50;;;13.50;99.90;;;;;;5056558;28;20215;-61
2022/05/05 05:55:12;;;;;;;12.88;9.57;;;13.40;99.90;;;;;;5042507;28;20472;-61
2022/05/05 05:57:38;;;;;;;11.00;9.55;;;13.80;99.90;;;;;;5049077;28;20182;-62
2022/05/05 06:00:04;;;;;;;11.87;10.87;;;13.40;99.90;;;;;;5042770;28;20666;-61
2022/05/05 06:05:14;;;;;;;12.20;11.10;;;14.00;99.90;;;;;;5048991;28;20626;-60
2022/05/05 06:07:40;;;;;;;10.47;9.57;;;13.70;99.90;;;;;;5047356;28;20204;-60
2022/05/05 06:10:06;;;;;;;11.10;10.10;;;13.90;99.90;;;;;;5037964;28;20186;-61
2022/05/05 06:12:31;;;;;;;11.53;10.47;;;13.80;99.90;;;;;;5042308;28;20181;-62
2022/05/05 06:14:57;;;;;;;12.17;10.97;;;14.00;99.90;;;;;;5048255;28;20804;-61
2022/05/05 06:17:23;;;;;;;11.00;9.90;;;13.90;99.90;;;;;;5044935;28;20646;-69
2022/05/05 06:19:48;;;;;;;11.83;10.53;;;13.70;99.90;;;;;;5046453;28;20189;-66
2022/05/05 06:22:14;;;;;;;10.43;9.27;;;13.70;99.90;;;;;;5049357;28;20189;-67
2022/05/05 06:24:40;;;;;;;11.57;10.43;;;14.00;99.90;;;;;;5051654;28;20213;-69
2022/05/05 06:27:05;;;;;;;13.97;12.40;;;14.10;99.90;;;;;;5062446;28;20570;-64
2022/05/05 06:29:31;;;;;;;11.33;10.13;;;14.30;99.90;;;;;;5046650;28;20201;-67
2022/05/05 06:31:57;;;;;;;11.37;10.30;;;14.40;99.90;;;;;;5049290;28;20194;-67
2022/05/05 06:34:22;;;;;;;11.60;10.60;;;14.70;99.90;;;;;;5042295;28;20580;-69
2022/05/05 06:36:48;;;;;;;11.07;10.07;;;14.40;99.90;;;;;;5048908;28;20197;-69
2022/05/05 06:39:14;;;;;;;13.70;12.13;;;14.40;99.90;;;;;;5049627;28;20181;-68
2022/05/05 06:41:40;;;;;;;14.90;13.40;;;14.60;99.90;;;;;;5050065;28;20178;-60
2022/05/05 06:44:06;;;;;;;10.87;9.97;;;14.80;99.90;;;;;;5046046;28;20604;-66
2022/05/05 06:46:32;;;;;;;10.68;9.23;;;15.20;99.90;;;;;;5049978;28;20201;-67
2022/05/05 06:48:58;;;;;;;9.17;8.47;;;15.30;99.90;;;;;;5050135;28;20560;-66
2022/05/05 06:51:23;;;;;;;9.63;8.83;;;15.80;99.90;;;;;;5050988;28;20185;-66
2022/05/05 06:53:49;;;;;;;10.10;9.10;;;15.40;99.90;;;;;;5050932;28;20268;-66
2022/05/05 06:56:15;;;;;;;11.33;9.60;;;15.20;99.90;;;;;;5051392;28;20876;-64
2022/05/05 06:58:40;;;;;;;10.30;9.37;;;15.10;99.90;;;;;;5050709;28;20186;-61
2022/05/05 07:05:23;;;;;;;10.68;9.57;;;15.50;99.90;;;;;;5048244;28;20196;-63
2022/05/05 07:06:36;;;;;;;11.05;10.02;;;15.60;99.90;;;;;;5050039;28;20285;-66
2022/05/05 07:11:45;;;;;;;10.43;9.27;;;15.40;99.90;;;;;;5043047;28;20192;-66
2022/05/05 07:14:12;;;;;;;15.00;13.70;;;15.40;99.90;;;;;;5048602;28;20205;-68
2022/05/05 07:16:38;;;;;;;10.25;9.30;;;15.60;99.90;;;;;;5047545;28;20558;-66
2022/05/05 07:19:04;;;;;;;10.77;9.77;;;15.40;99.90;;;;;;5045872;28;20182;-66
2022/05/05 07:21:30;;;;;;;10.30;9.30;;;15.30;99.90;;;;;;5047088;28;20196;-69
2022/05/05 07:24:00;;;;;;;9.80;8.90;;;15.80;99.90;;;;;;5044394;28;20292;-69
2022/05/05 07:26:27;;;;;;;9.10;8.30;;;15.70;99.90;;;;;;5043701;28;20263;-71
2022/05/05 07:28:52;;;;;;;10.40;9.40;;;16.10;99.90;;;;;;5045810;28;20821;-62
2022/05/05 07:31:18;;;;;;;10.27;9.37;;;16.20;99.90;;;;;;5047768;28;20189;-61
2022/05/05 07:33:44;;;;;;;9.80;8.90;;;16.30;99.90;;;;;;5047150;28;20185;-64
2022/05/05 07:36:09;;;;;;;11.50;9.73;;;16.00;99.90;;;;;;5046594;28;20638;-62
2022/05/05 07:38:36;;;;;;;10.30;9.33;;;16.20;99.90;;;;;;5050162;28;20181;-63
2022/05/05 07:41:02;;;;;;;10.05;9.20;;;16.00;99.90;;;;;;5045939;28;20181;-63
2022/05/05 07:43:28;;;;;;;9.77;8.98;;;16.10;99.90;;;;;;5049123;28;20178;-62
2022/05/05 07:45:54;;;;;;;10.77;9.77;;;16.60;99.90;;;;;;5047655;28;20205;-62
2022/05/05 07:48:20;;;;;;;10.83;9.73;;;16.10;99.90;;;;;;5044872;28;20528;-63
2022/05/05 07:50:49;;;;;;;11.45;10.32;;;16.20;99.90;;;;;;5040803;28;20259;-61
2022/05/05 07:53:15;;;;;;;12.18;11.10;;;15.80;99.90;;;;;;5060255;28;20280;-60
2022/05/05 07:55:41;;;;;;;12.65;11.45;;;15.90;99.90;;;;;;5046169;28;20201;-63
2022/05/05 07:58:06;;;;;;;11.03;10.03;;;16.10;99.90;;;;;;5037881;28;20201;-63
2022/05/05 08:00:32;;;;;;;10.80;9.90;;;16.10;99.90;;;;;;5044377;28;20187;-63
2022/05/05 08:02:58;;;;;;;11.77;10.77;;;16.00;99.90;;;;;;5048648;28;20240;-64
2022/05/05 08:05:23;;;;;;;10.87;9.80;;;16.30;99.90;;;;;;5049617;28;20213;-63
2022/05/05 08:07:49;;;;;;;11.93;10.83;;;16.20;99.90;;;;;;5044647;28;20561;-58
2022/05/05 08:10:20;;;;;;;12.40;10.47;;;16.20;99.90;;;;;;5050341;28;20189;-59
2022/05/05 08:12:46;;;;;;;11.10;10.10;;;15.90;99.90;;;;;;5045624;28;20233;-61
2022/05/05 08:15:13;;;;;;;11.90;10.80;;;16.20;99.90;;;;;;5049412;28;20212;-63
2022/05/05 08:17:39;;;;;;;12.13;11.05;;;15.90;99.90;;;;;;5043834;28;20200;-68
2022/05/05 08:20:07;;;;;;;11.85;10.85;;;16.00;99.90;;;;;;5047142;28;20288;-70
2022/05/05 08:22:33;;;;;;;13.77;12.50;;;16.20;99.90;;;;;;5044763;28;20197;-70
2022/05/05 08:30:27;;;;;;;11.98;10.88;;;16.50;99.90;;;;;;5045847;28;20199;-66
2022/05/05 08:32:53;;;;;;;13.13;11.70;;;16.30;99.90;;;;;;5049083;28;20916;-66
2022/05/05 08:35:19;;;;;;;12.27;11.17;;;16.30;99.90;;;;;;5044364;28;20271;-66
2022/05/05 08:37:45;;;;;;;11.17;10.27;;;16.50;99.90;;;;;;5064251;28;20254;-65
2022/05/05 08:40:14;;;;;;;11.83;10.80;;;16.90;99.90;;;;;;5052868;28;20272;-66
2022/05/05 08:42:40;;;;;;;11.90;10.82;;;17.60;99.90;;;;;;5045709;28;20186;-62
2022/05/05 08:45:06;;;;;;;12.57;11.37;;;17.50;99.90;;;;;;5041646;28;20641;-62
2022/05/05 08:47:33;;;;;;;11.15;9.95;;;17.70;99.90;;;;;;5042733;28;20182;-62
2022/05/05 08:50:00;;;;;;;13.07;11.77;;;18.00;99.80;;;;;;5048269;28;20315;-61
2022/05/05 08:52:30;;;;;;;12.57;11.05;;;18.10;99.30;;;;;;5047358;28;20174;-63
2022/05/05 08:54:56;;;;;;;12.98;11.77;;;18.40;99.10;;;;;;5049714;28;20213;-60
2022/05/05 08:57:23;;;;;;;13.90;12.60;;;18.40;98.00;;;;;;5065368;28;20820;-62
2022/05/05 08:59:48;;;;;;;14.85;13.55;;;18.60;98.20;;;;;;5053175;28;20222;-64
2022/05/05 09:02:14;;;;;;;17.80;16.13;;;18.10;98.40;;;;;;5046235;28;20173;-63
2022/05/05 09:04:44;;;;;;;15.80;14.17;;;17.50;98.90;;;;;;5047863;28;20232;-63
2022/05/05 09:07:10;;;;;;;13.57;12.27;;;17.70;99.90;;;;;;5051636;28;20677;-66
2022/05/05 09:09:37;;;;;;;13.30;12.10;;;17.80;99.80;;;;;;5052591;28;20181;-64
2022/05/05 09:12:05;;;;;;;15.32;13.93;;;18.00;99.50;;;;;;5051077;28;20186;-60
2022/05/05 09:14:41;;;;;;;17.00;15.40;;;18.00;99.70;;;;;;5052109;28;20201;-60
2022/05/05 09:17:08;;;;;;;17.85;16.25;;;17.40;99.90;;;;;;5050291;28;20563;-61
2022/05/05 09:19:42;;;;;;;15.50;14.10;;;17.20;99.90;;;;;;5052444;28;20352;-63
2022/05/05 09:22:09;;;;;;;16.38;14.98;;;17.30;99.90;;;;;;5047683;28;20275;-61
2022/05/05 09:24:36;;;;;;;15.75;14.25;;;17.10;99.90;;;;;;5050897;28;20205;-65
2022/05/05 09:27:24;;;;;;;15.80;14.45;;;17.10;99.90;;;;;;5048002;28;20276;-63
2022/05/05 09:30:03;;;;;;;17.77;15.75;;;17.00;99.90;;;;;;5048928;28;20520;-64
2022/05/05 09:32:38;;;;;;;18.23;16.35;;;17.20;99.90;;;;;;5050807;28;20194;-64
2022/05/05 09:35:09;;;;;;;19.98;18.23;;;17.00;99.90;;;;;;5043953;28;20199;-64
2022/05/05 09:37:35;;;;;;;18.73;16.88;;;16.60;99.90;;;;;;5049064;28;20184;-63
2022/05/05 09:40:03;;;;;;;19.67;17.60;;;16.80;99.90;;;;;;5065947;28;20683;-62
2022/05/05 09:42:50;;;;;;;18.52;16.85;;;16.30;99.90;;;;;;5047326;28;20193;-63
2022/05/05 09:45:22;;;;;;;17.88;16.38;;;16.50;99.90;;;;;;5044853;28;20214;-61
2022/05/05 09:48:03;;;;;;;16.58;15.07;;;16.30;99.90;;;;;;5051916;28;20203;-61
2022/05/05 09:50:33;;;;;;;18.70;16.85;;;16.70;99.90;;;;;;5055007;28;20231;-65
2022/05/05 09:58:39;;;;;;;16.98;15.40;;;16.80;99.90;;;;;;5046879;28;20195;-60
2022/05/05 10:01:08;;;;;;;17.60;15.65;;;16.70;99.90;;;;;;5048209;28;20186;-60
2022/05/05 10:04:05;;;;;;;16.63;14.70;;;16.70;99.90;;;;;;5048064;28;20181;-63
2022/05/05 10:06:32;;;;;;;17.85;16.25;;;17.10;99.90;;;;;;5044828;28;20201;-67
2022/05/05 10:09:02;;;;;;;19.77;17.67;;;17.10;99.90;;;;;;5041533;28;20627;-60
2022/05/05 10:11:29;;;;;;;18.17;16.48;;;16.90;99.90;;;;;;5040822;28;20174;-61
2022/05/05 10:13:56;;;;;;;19.75;17.92;;;16.30;99.90;;;;;;5048152;28;20188;-69
2022/05/05 10:16:22;;;;;;;19.98;18.17;;;16.80;99.90;;;;;;5047867;28;20209;-68
2022/05/05 10:18:50;;;;;;;18.80;17.05;;;17.30;99.90;;;;;;5050024;28;20195;-70
2022/05/05 10:21:31;;;;;;;17.40;15.80;;;16.90;99.90;;;;;;5066907;28;20235;-69
2022/05/05 10:24:15;;;;;;;19.35;17.35;;;17.10;99.90;;;;;;5065715;28;20209;-61
2022/05/05 10:26:41;;;;;;;22.00;19.83;;;17.10;99.90;;;;;;5050092;28;20294;-62
2022/05/05 10:29:39;;;;;;;21.03;18.90;;;17.20;99.90;;;;;;5047921;28;20229;-62
2022/05/05 10:32:05;;;;;;;19.65;17.95;;;17.40;99.40;;;;;;5043054;28;20476;-64
2022/05/05 10:34:32;;;;;;;18.95;17.02;;;17.10;99.80;;;;;;5049358;28;20198;-63
2022/05/05 10:37:06;;;;;;;23.33;19.25;;;16.90;99.90;;;;;;5050244;28;20193;-63
2022/05/05 10:39:49;;;;;;;20.58;18.77;;;17.40;99.90;;;;;;5055031;28;20250;-63
2022/05/05 10:42:31;;;;;;;21.23;19.10;;;17.30;99.80;;;;;;5041929;28;20186;-63
2022/05/05 10:45:19;;;;;;;22.80;20.55;;;17.40;99.40;;;;;;5046596;28;20534;-63
2022/05/05 10:48:01;;;;;;;19.90;18.15;;;17.20;99.60;;;;;;5045293;28;20627;-63
2022/05/05 10:50:49;;;;;;;20.42;18.40;;;17.60;98.70;;;;;;5042872;28;20196;-63
2022/05/05 10:53:32;;;;;;;20.42;18.58;;;17.40;99.40;;;;;;5045259;28;20685;-62
2022/05/05 10:55:59;;;;;;;19.23;17.52;;;17.30;99.90;;;;;;5058247;28;20205;-62
2022/05/05 10:59:03;;;;;;;19.05;17.35;;;17.40;99.70;;;;;;5048931;28;20177;-62
2022/05/05 11:01:49;;;;;;;20.25;18.45;;;17.30;99.90;;;;;;5046435;28;20193;-62
2022/05/05 11:04:15;;;;;;;22.80;20.70;;;17.40;99.90;;;;;;5064564;28;20209;-63
2022/05/05 11:06:42;;;;;;;21.87;19.80;;;17.40;99.90;;;;;;5047466;28;20274;-63
2022/05/05 11:09:08;;;;;;;21.33;19.42;;;17.20;99.90;;;;;;5047594;28;20265;-63
2022/05/05 11:11:44;;;;;;;21.77;19.77;;;17.40;99.90;;;;;;5049082;28;20177;-63
2022/05/05 11:22:46;;;;;;;20.75;18.85;;;17.30;99.90;;;;;;5045131;28;20661;-66
2022/05/05 11:25:11;;;;;;;21.87;19.73;;;17.40;99.90;;;;;;5048448;28;20221;-65
2022/05/05 11:27:37;;;;;;;22.20;20.27;;;17.60;99.90;;;;;;5047773;28;20189;-64
2022/05/05 11:30:04;;;;;;;23.40;21.40;;;17.40;99.90;;;;;;5049467;28;20456;-63
2022/05/05 11:32:32;;;;;;;33.50;30.38;;;17.00;99.90;;;;;;5048534;28;20959;-65
2022/05/05 11:34:59;;;;;;;25.25;22.95;;;17.20;99.90;;;;;;5047938;28;20280;-68
2022/05/05 11:37:29;;;;;;;24.83;22.38;;;17.30;99.90;;;;;;5048429;28;20210;-65
2022/05/05 11:39:55;;;;;;;22.40;20.40;;;17.40;99.90;;;;;;5046893;28;20180;-62
2022/05/05 11:42:21;;;;;;;23.08;20.63;;;16.90;99.90;;;;;;5047909;28;20793;-62
2022/05/05 11:44:48;;;;;;;23.57;20.63;;;17.00;99.90;;;;;;5046863;28;20209;-62
2022/05/05 11:47:21;;;;;;;24.25;22.05;;;17.00;99.90;;;;;;5050132;28;20209;-63
2022/05/05 11:49:52;;;;;;;24.45;22.15;;;16.70;99.90;;;;;;5045253;28;20188;-64
2022/05/05 11:52:23;;;;;;;24.00;21.77;;;16.70;99.90;;;;;;5048701;28;20187;-64
2022/05/05 11:54:55;;;;;;;24.80;22.45;;;16.90;99.90;;;;;;5044874;28;20209;-65
2022/05/05 11:57:30;;;;;;;21.45;19.45;;;17.00;99.90;;;;;;5042041;28;20182;-64
2022/05/05 12:02:40;;;;;;;20.45;18.55;;;16.90;99.90;;;;;;5045382;28;20235;-69
2022/05/05 12:05:08;;;;;;;24.57;22.03;;;16.70;99.90;;;;;;5044445;28;20670;-67
2022/05/05 12:07:34;;;;;;;22.58;20.38;;;16.80;99.90;;;;;;5046846;28;20189;-67
2022/05/05 12:10:08;;;;;;;24.02;21.63;;;16.90;99.90;;;;;;5046679;28;20276;-67
2022/05/05 12:12:37;;;;;;;23.73;21.50;;;16.80;99.90;;;;;;5057838;28;20480;-61
2022/05/05 12:15:05;;;;;;;24.17;21.88;;;16.70;99.90;;;;;;5048896;28;20193;-62
2022/05/05 12:17:41;;;;;;;31.17;28.20;;;17.10;99.90;;;;;;5038516;28;20181;-63
2022/05/05 12:20:11;;;;;;;25.00;22.60;;;17.00;99.90;;;;;;5047404;28;20554;-62
2022/05/05 12:22:38;;;;;;;25.88;23.20;;;17.10;99.90;;;;;;5046341;28;20204;-63
2022/05/05 12:25:16;;;;;;;23.17;20.95;;;17.00;99.90;;;;;;5047245;28;20202;-65
2022/05/05 12:28:01;;;;;;;23.05;20.85;;;17.40;99.90;;;;;;5044379;28;20209;-65
2022/05/05 12:30:41;;;;;;;24.58;22.02;;;17.60;99.90;;;;;;5042006;28;20248;-71
2022/05/05 12:33:09;;;;;;;25.27;22.77;;;17.60;99.90;;;;;;5046520;28;20673;-68
2022/05/05 12:35:43;;;;;;;26.38;23.50;;;17.60;99.90;;;;;;5041559;28;20222;-72
2022/05/05 12:38:12;;;;;;;26.25;23.48;;;17.30;99.90;;;;;;5046134;28;20190;-64
2022/05/05 12:40:43;;;;;;;25.95;23.20;;;17.20;99.90;;;;;;5045891;28;20189;-63
2022/05/05 12:43:18;;;;;;;30.02;26.90;;;17.20;99.90;;;;;;5048093;28;20189;-63
2022/05/05 12:45:45;;;;;;;26.05;23.35;;;17.30;99.90;;;;;;5044622;28;20561;-60
2022/05/05 12:48:11;;;;;;;25.27;22.70;;;17.10;99.90;;;;;;5039307;28;20181;-61
2022/05/05 12:50:46;;;;;;;24.90;22.40;;;17.40;99.90;;;;;;5044122;28;20173;-61
2022/05/05 13:01:40;;;;;;;23.90;21.50;;;17.80;99.90;;;;;;5041106;28;20227;-61
2022/05/05 13:04:09;;;;;;;23.45;20.98;;;17.50;99.90;;;;;;5043542;28;20906;-61
2022/05/05 13:06:36;;;;;;;23.63;21.27;;;17.80;99.90;;;;;;5044462;28;20213;-62
2022/05/05 13:09:08;;;;;;;23.13;20.80;;;17.90;99.90;;;;;;5044986;28;20182;-62
2022/05/05 13:11:34;;;;;;;23.75;21.25;;;17.60;99.90;;;;;;5046927;28;20209;-61
2022/05/05 13:14:01;;;;;;;25.30;22.48;;;17.80;99.90;;;;;;5039959;28;20198;-62
2022/05/05 13:16:27;;;;;;;23.95;21.55;;;17.50;99.90;;;;;;5048013;28;20287;-62
2022/05/05 13:18:53;;;;;;;24.80;22.30;;;17.80;99.90;;;;;;5049685;28;20190;-61
2022/05/05 13:21:18;;;;;;;22.50;20.03;;;17.90;99.90;;;;;;5047985;28;20612;-61
2022/05/05 13:23:44;;;;;;;21.43;19.40;;;18.30;99.90;;;;;;5046531;28;20192;-62
2022/05/05 13:26:11;;;;;;;23.70;21.20;;;18.30;99.90;;;;;;5050373;28;20209;-62
2022/05/05 13:28:37;;;;;;;25.08;19.83;;;18.30;99.90;;;;;;5050881;28;20185;-61
2022/05/05 13:31:03;;;;;;;20.03;18.07;;;17.80;99.90;;;;;;5070519;28;20196;-62